Time;durP1;ratioP1;P1;durP2;ratioP2;P2;SDS_P1;SDS_P2;PMS_P1;PMS_P2;Temp;Humidity;BMP_temperature;BMP_pressure;BME280_temperature;BME280_humidity;BME280_pressure;Samples;Min_cycle;Max_cycle;Signal;HPM_P1;HPM_P2
2022/02/07 00:02:07;;;;;;;17.85;9.98;;;0.90;99.90;;;;;;5095123;28;20027;-84
2022/02/07 00:04:37;;;;;;;19.15;10.25;;;1.00;99.90;;;;;;5094834;28;20052;-83
2022/02/07 00:07:05;;;;;;;19.30;10.98;;;1.00;99.90;;;;;;5094574;28;20043;-84
2022/02/07 00:09:33;;;;;;;17.77;9.65;;;1.00;99.90;;;;;;5095773;28;20476;-83
2022/02/07 00:11:58;;;;;;;27.98;12.50;;;1.10;99.90;;;;;;5094934;28;20024;-83
2022/02/07 00:14:24;;;;;;;24.50;11.93;;;1.00;99.90;;;;;;5094529;28;20181;-82
2022/02/07 00:16:50;;;;;;;19.33;10.32;;;1.00;99.90;;;;;;5094843;28;20050;-84
2022/02/07 00:19:23;;;;;;;18.38;9.85;;;1.10;99.90;;;;;;5094918;28;20024;-84
2022/02/07 00:21:49;;;;;;;21.00;10.68;;;1.00;99.90;;;;;;5094977;28;20035;-84
2022/02/07 00:24:15;;;;;;;25.00;12.25;;;1.00;99.90;;;;;;5094599;28;20074;-84
2022/02/07 00:26:41;;;;;;;22.77;11.65;;;1.00;99.90;;;;;;5094795;28;20028;-83
2022/02/07 00:29:07;;;;;;;20.23;10.77;;;1.00;99.90;;;;;;5094449;28;20043;-82
2022/02/07 00:31:34;;;;;;;19.02;10.45;;;1.00;99.90;;;;;;5094663;28;20020;-85
2022/02/07 00:33:59;;;;;;;20.67;10.55;;;0.90;99.90;;;;;;5094703;28;20131;-84
2022/02/07 00:36:25;;;;;;;23.63;10.25;;;0.90;99.90;;;;;;5094706;28;20056;-85
2022/02/07 00:38:57;;;;;;;22.17;10.13;;;0.90;99.90;;;;;;5094586;28;20035;-83
2022/02/07 00:41:32;;;;;;;18.67;10.98;;;0.80;99.90;;;;;;5094564;28;20036;-83
2022/02/07 00:43:59;;;;;;;20.52;9.95;;;0.90;99.90;;;;;;5094619;28;20123;-83
2022/02/07 00:46:34;;;;;;;16.05;9.85;;;0.90;99.90;;;;;;5094318;28;20055;-84
2022/02/07 00:49:00;;;;;;;19.80;10.13;;;0.90;99.90;;;;;;5094416;28;20031;-83
2022/02/07 00:51:26;;;;;;;16.45;9.35;;;0.80;99.90;;;;;;5095487;28;20391;-84
2022/02/07 00:53:52;;;;;;;19.52;9.95;;;0.80;99.90;;;;;;5094111;28;20031;-85
2022/02/07 00:56:17;;;;;;;15.48;8.90;;;0.70;99.90;;;;;;5094269;28;20035;-86
2022/02/07 00:58:43;;;;;;;16.38;9.38;;;0.80;99.90;;;;;;5094225;28;20036;-85
2022/02/07 01:01:09;;;;;;;17.40;8.93;;;0.70;99.90;;;;;;5094337;28;20028;-86
2022/02/07 01:03:34;;;;;;;14.85;8.77;;;0.70;99.90;;;;;;5093719;28;20030;-85
2022/02/07 01:06:01;;;;;;;16.83;8.77;;;0.60;99.90;;;;;;5094051;28;20028;-85
2022/02/07 01:08:49;;;;;;;13.75;9.55;;;0.60;99.90;;;;;;5093960;28;20403;-84
2022/02/07 01:11:45;;;;;;;20.23;8.05;;;0.60;99.90;;;;;;5095282;28;20099;-83
2022/02/07 01:14:13;;;;;;;13.63;8.48;;;0.50;99.90;;;;;;5095018;28;20031;-87
2022/02/07 01:49:24;;;;;;;13.68;8.82;;;0.30;99.90;;;;;;5098204;28;20102;-83
2022/02/07 01:52:07;;;;;;;14.82;7.80;;;0.20;99.90;;;;;;5097371;28;20051;-84
2022/02/07 01:54:43;;;;;;;14.45;9.27;;;0.30;99.90;;;;;;5097124;28;20483;-83
2022/02/07 01:57:11;;;;;;;;;;;0.30;99.90;;;;;;5097584;28;20065;-82
2022/02/07 01:59:38;;;;;;;14.57;8.32;;;0.30;99.90;;;;;;5097287;28;20367;-83
2022/02/07 02:02:05;;;;;;;16.92;9.30;;;0.30;99.90;;;;;;5096968;28;20035;-85
2022/02/07 02:04:31;;;;;;;15.75;9.20;;;0.20;99.90;;;;;;5096953;28;20031;-84
2022/02/07 02:06:57;;;;;;;16.15;8.98;;;0.40;99.90;;;;;;5097044;28;20028;-83
2022/02/07 02:09:27;;;;;;;17.58;9.25;;;0.20;99.90;;;;;;5096968;28;20020;-84
2022/02/07 02:11:53;;;;;;;17.45;9.77;;;0.40;99.90;;;;;;5096480;28;20039;-84
2022/02/07 02:45:37;;;;;;;16.80;8.50;;;0.00;99.90;;;;;;5097701;28;20085;-83
2022/02/07 02:48:10;;;;;;;17.13;8.40;;;0.00;99.90;;;;;;5096334;28;20069;-85
2022/02/07 02:50:37;;;;;;;15.70;8.07;;;0.00;99.90;;;;;;5096210;28;20487;-83
2022/02/07 02:53:09;;;;;;;12.98;7.05;;;0.00;99.90;;;;;;5096150;28;20031;-86
2022/02/07 02:55:37;;;;;;;11.57;7.60;;;-0.10;99.90;;;;;;5095956;28;20065;-84
2022/02/07 02:58:04;;;;;;;13.48;8.35;;;0.00;99.90;;;;;;5097234;28;20024;-84
2022/02/07 03:00:30;;;;;;;13.48;8.63;;;0.30;99.90;;;;;;5095969;28;20158;-84
2022/02/07 03:02:56;;;;;;;16.55;9.02;;;0.10;99.90;;;;;;5096073;28;20039;-84
2022/02/07 03:05:22;;;;;;;17.83;10.52;;;0.00;99.90;;;;;;5095980;28;20020;-83
2022/02/07 03:07:48;;;;;;;16.27;9.63;;;0.00;99.90;;;;;;5096203;28;20024;-84
2022/02/07 03:10:23;;;;;;;21.95;9.82;;;0.00;99.90;;;;;;5095839;28;20073;-85
2022/02/07 03:13:03;;;;;;;22.10;10.05;;;0.10;99.90;;;;;;5096126;28;20031;-83
2022/02/07 03:18:13;;;;;;;14.93;8.88;;;0.10;99.90;;;;;;5097099;28;20023;-82
2022/02/07 03:20:39;;;;;;;12.98;9.02;;;0.10;99.90;;;;;;5095917;28;20032;-84
2022/02/07 03:23:05;;;;;;;15.70;9.20;;;0.10;99.90;;;;;;5095531;28;20107;-82
2022/02/07 03:25:33;;;;;;;15.48;9.55;;;0.20;99.90;;;;;;5095856;28;20024;-85
2022/02/07 03:27:58;;;;;;;15.73;8.88;;;0.30;99.90;;;;;;5095883;28;20024;-83
2022/02/07 03:30:24;;;;;;;15.93;9.38;;;0.40;99.90;;;;;;5095139;28;20135;-83
2022/02/07 03:32:50;;;;;;;17.15;8.88;;;0.50;99.90;;;;;;5095269;28;20028;-85
2022/02/07 03:35:16;;;;;;;14.77;8.35;;;0.60;99.90;;;;;;5095650;28;20032;-84
2022/02/07 03:37:42;;;;;;;14.90;9.02;;;0.60;99.90;;;;;;5095314;28;20446;-83
2022/02/07 03:40:08;;;;;;;14.75;8.95;;;0.70;99.90;;;;;;5095503;28;20024;-83
2022/02/07 03:42:33;;;;;;;17.55;8.57;;;0.80;99.90;;;;;;5095451;28;20088;-84
2022/02/07 03:44:59;;;;;;;13.38;8.60;;;1.00;99.90;;;;;;5095448;28;20020;-85
2022/02/07 03:47:25;;;;;;;15.20;7.72;;;0.90;99.90;;;;;;5094952;28;20027;-82
2022/02/07 03:49:51;;;;;;;16.20;8.05;;;0.90;99.90;;;;;;5095290;28;20027;-84
2022/02/07 03:52:17;;;;;;;12.90;7.82;;;1.00;99.90;;;;;;5095314;28;20107;-84
2022/02/07 03:54:43;;;;;;;14.73;8.65;;;1.20;99.90;;;;;;5095304;28;20035;-83
2022/02/07 03:57:08;;;;;;;15.88;9.73;;;1.40;99.90;;;;;;5095288;28;20079;-84
2022/02/07 03:59:34;;;;;;;15.88;9.23;;;1.50;99.90;;;;;;5095279;28;20085;-85
2022/02/07 04:02:00;;;;;;;11.43;7.78;;;1.80;99.90;;;;;;5095125;28;20024;-85
2022/02/07 04:04:25;;;;;;;13.25;8.07;;;2.10;99.90;;;;;;5094646;28;20382;-85
2022/02/07 04:06:52;;;;;;;13.40;7.65;;;2.30;99.90;;;;;;5094684;28;20024;-84
2022/02/07 04:09:21;;;;;;;11.18;7.80;;;2.50;99.90;;;;;;5095869;28;20056;-86
2022/02/07 04:11:57;;;;;;;11.07;7.60;;;2.80;99.90;;;;;;5096725;28;20046;-85
2022/02/07 04:14:24;;;;;;;10.68;5.38;;;3.10;99.90;;;;;;5096679;28;20032;-85
2022/02/07 04:16:50;;;;;;;9.38;6.72;;;3.20;99.90;;;;;;5096875;28;20024;-83
2022/02/07 04:19:21;;;;;;;11.07;5.30;;;3.30;99.90;;;;;;5097216;28;20031;-86
2022/02/07 04:21:50;;;;;;;7.75;4.55;;;3.30;99.90;;;;;;5096533;28;20024;-84
2022/02/07 04:24:17;;;;;;;8.85;5.45;;;3.30;99.90;;;;;;5097040;28;20024;-86
2022/02/07 04:26:43;;;;;;;9.55;5.25;;;3.30;99.90;;;;;;5096638;28;20024;-86
2022/02/07 04:29:09;;;;;;;10.63;4.07;;;3.30;99.90;;;;;;5096335;28;20526;-85
2022/02/07 04:31:35;;;;;;;10.68;5.40;;;3.20;99.90;;;;;;5096688;28;20085;-87
2022/02/07 04:34:00;;;;;;;7.00;4.57;;;3.20;99.90;;;;;;5096613;28;20070;-86
2022/02/07 04:36:26;;;;;;;6.93;4.35;;;3.20;99.90;;;;;;5096643;28;20027;-83
2022/02/07 04:38:51;;;;;;;8.13;3.83;;;3.30;99.90;;;;;;5097866;28;20032;-83
2022/02/07 04:41:17;;;;;;;4.88;3.53;;;3.40;99.90;;;;;;5098459;28;20046;-85
2022/02/07 04:43:51;;;;;;;4.20;3.17;;;3.40;99.90;;;;;;5099399;28;20027;-85
2022/02/07 04:54:17;;;;;;;5.18;3.75;;;3.70;99.90;;;;;;5102534;28;20043;-85
2022/02/07 04:57:09;;;;;;;8.60;4.20;;;3.70;99.90;;;;;;5093682;28;20028;-83
2022/02/07 05:02:27;;;;;;;6.55;3.90;;;3.70;99.90;;;;;;5095241;28;20158;-84
2022/02/07 05:13:42;;;;;;;6.25;4.30;;;3.70;99.90;;;;;;5093688;28;20031;-84
2022/02/07 05:15:51;;;;;;;6.45;5.05;;;3.50;99.90;;;;;;5098788;28;20062;-83
2022/02/07 05:18:18;;;;;;;10.40;4.68;;;3.50;99.90;;;;;;5097545;28;20020;-83
2022/02/07 05:20:44;;;;;;;5.45;3.00;;;3.40;99.90;;;;;;5097684;28;20027;-84
2022/02/07 05:23:09;;;;;;;8.65;4.20;;;3.50;99.90;;;;;;5097745;28;20032;-83
2022/02/07 05:25:35;;;;;;;5.28;3.33;;;3.40;99.90;;;;;;5097646;28;20445;-86
2022/02/07 05:28:01;;;;;;;4.07;3.10;;;3.40;99.90;;;;;;5097822;28;20077;-84
2022/02/07 05:30:26;;;;;;;3.72;3.25;;;3.40;99.90;;;;;;5098209;28;20052;-85
2022/02/07 05:32:52;;;;;;;5.95;3.10;;;3.30;99.90;;;;;;5097083;28;20024;-85
2022/02/07 05:35:18;;;;;;;8.45;3.42;;;3.30;99.90;;;;;;5098519;28;20036;-84
2022/02/07 05:37:44;;;;;;;5.82;2.83;;;3.30;99.90;;;;;;5098406;28;20063;-84
2022/02/07 05:40:17;;;;;;;3.83;2.83;;;3.30;99.90;;;;;;5097215;28;20035;-84
2022/02/07 05:42:43;;;;;;;5.82;2.83;;;3.20;99.90;;;;;;5097197;28;20024;-87
2022/02/07 05:45:09;;;;;;;5.90;3.42;;;3.20;99.90;;;;;;5097346;28;20024;-84
2022/02/07 05:47:35;;;;;;;6.40;3.13;;;3.20;99.90;;;;;;5097122;28;20032;-85
2022/02/07 05:50:02;;;;;;;8.27;3.53;;;3.10;99.90;;;;;;5096988;28;20016;-83
2022/02/07 05:52:28;;;;;;;12.05;5.07;;;3.10;99.90;;;;;;5097460;28;20032;-84
2022/02/07 05:54:54;;;;;;;7.53;4.00;;;3.00;99.90;;;;;;5096981;28;20036;-84
2022/02/07 05:57:20;;;;;;;8.50;4.18;;;3.00;99.90;;;;;;5097013;28;20023;-85
2022/02/07 05:59:45;;;;;;;8.05;3.45;;;2.90;99.90;;;;;;5096859;28;20543;-84
2022/02/07 06:02:11;;;;;;;13.75;4.05;;;2.80;99.90;;;;;;5096912;28;20471;-84
2022/02/07 06:04:37;;;;;;;10.65;4.93;;;2.70;99.90;;;;;;5097064;28;20024;-85
2022/02/07 06:07:03;;;;;;;7.63;3.20;;;2.70;99.90;;;;;;5096946;28;20066;-84
2022/02/07 06:09:28;;;;;;;4.63;2.72;;;2.60;99.90;;;;;;5097103;28;20028;-83
2022/02/07 06:11:55;;;;;;;5.90;3.15;;;2.50;99.90;;;;;;5097128;28;20027;-84
2022/02/07 06:14:21;;;;;;;7.93;3.70;;;2.50;99.90;;;;;;5097118;28;20032;-84
2022/02/07 06:16:46;;;;;;;8.85;4.88;;;2.40;99.90;;;;;;5097025;28;20027;-85
2022/02/07 06:19:12;;;;;;;9.27;4.28;;;2.40;99.90;;;;;;5097053;28;20020;-85
2022/02/07 06:21:38;;;;;;;10.55;3.97;;;2.40;99.90;;;;;;5097222;28;20035;-85
2022/02/07 06:24:04;;;;;;;6.40;3.80;;;2.40;99.90;;;;;;5097083;28;20043;-84
2022/02/07 06:26:31;;;;;;;4.45;2.90;;;2.30;99.90;;;;;;5096973;28;20020;-83
2022/02/07 06:28:57;;;;;;;5.70;3.38;;;2.30;99.90;;;;;;5096395;28;20135;-84
2022/02/07 06:31:24;;;;;;;4.55;3.20;;;2.30;99.90;;;;;;5096676;28;20028;-84
2022/02/07 06:33:50;;;;;;;4.78;3.20;;;2.40;99.90;;;;;;5096548;28;20028;-84
2022/02/07 06:36:15;;;;;;;4.03;2.92;;;2.40;99.90;;;;;;5099766;28;20467;-83
2022/02/07 06:38:45;;;;;;;27.33;10.80;;;2.40;99.90;;;;;;5099683;28;20028;-84
2022/02/07 06:41:12;;;;;;;20.48;9.32;;;2.30;99.90;;;;;;5103250;28;20060;-84
2022/02/07 06:43:40;;;;;;;20.88;17.70;;;2.30;99.90;;;;;;5086792;28;20119;-84
2022/02/07 06:46:08;;;;;;;12.18;7.80;;;2.20;99.90;;;;;;5106650;28;20028;-83
2022/02/07 06:48:36;;;;;;;11.48;7.63;;;2.20;99.90;;;;;;5068837;28;20032;-84
2022/02/07 06:51:09;;;;;;;12.23;7.63;;;2.40;99.90;;;;;;5088976;28;20025;-82
2022/02/07 06:53:35;;;;;;;16.23;13.25;;;2.40;99.90;;;;;;5090003;28;20032;-84
2022/02/07 06:56:02;;;;;;;8.05;5.47;;;2.40;99.90;;;;;;5096396;22;20076;-85
2022/02/07 06:59:16;;;;;;;5.28;4.60;;;2.40;99.90;;;;;;5116732;22;20032;-83
2022/02/07 07:02:25;;;;;;;8.05;4.45;;;2.40;99.90;;;;;;5087419;28;20137;-85
2022/02/07 07:05:11;;;;;;;8.25;4.97;;;2.40;99.90;;;;;;5085383;28;20038;-83
2022/02/07 07:07:37;;;;;;;9.07;4.65;;;2.40;99.90;;;;;;5058815;28;20121;-83
2022/02/07 07:10:05;;;;;;;6.03;4.88;;;2.40;99.90;;;;;;5058811;28;20021;-82
2022/02/07 07:12:30;;;;;;;1.90;1.30;;;2.40;99.90;;;;;;5058422;28;20025;-82
2022/02/07 07:15:06;;;;;;;0.70;0.65;;;2.60;99.90;;;;;;5058045;28;20033;-81
2022/02/07 07:17:32;;;;;;;0.20;0.20;;;3.00;99.90;;;;;;5057614;28;20033;-83
2022/02/07 07:20:02;;;;;;;0.57;0.40;;;3.70;99.90;;;;;;5058137;28;20038;-84
2022/02/07 07:22:29;;;;;;;0.08;0.08;;;4.10;98.80;;;;;;5058139;28;20021;-82
2022/02/07 07:24:54;;;;;;;0.15;0.10;;;4.20;99.80;;;;;;5057935;28;20020;-81
2022/02/07 07:27:25;;;;;;;0.22;0.22;;;4.10;99.90;;;;;;5057783;28;20028;-82
2022/02/07 07:29:50;;;;;;;5.60;1.95;;;4.10;99.90;;;;;;5057566;28;20062;-83
2022/02/07 07:32:21;;;;;;;3.25;2.22;;;4.00;99.90;;;;;;5058881;28;20086;-83
2022/02/07 07:34:47;;;;;;;11.27;4.95;;;3.90;99.90;;;;;;5058603;28;20033;-83
2022/02/07 07:37:13;;;;;;;0.75;0.50;;;3.90;99.90;;;;;;5062015;28;20028;-85
2022/02/07 07:39:38;;;;;;;2.00;0.93;;;3.90;99.90;;;;;;5077429;28;20028;-83
2022/02/07 07:42:04;;;;;;;5.38;2.33;;;3.90;99.90;;;;;;5058146;28;20380;-83
2022/02/07 07:44:32;;;;;;;2.45;1.50;;;3.90;99.90;;;;;;5074727;28;20574;-83
2022/02/07 07:47:05;;;;;;;1.75;1.00;;;3.80;99.90;;;;;;5058819;28;20021;-82
2022/02/07 07:49:42;;;;;;;6.15;3.30;;;3.80;99.90;;;;;;5058584;28;20460;-83
2022/02/07 07:52:13;;;;;;;0.32;0.30;;;3.80;99.90;;;;;;5073716;28;20055;-80
2022/02/07 08:02:47;;;;;;;2.70;1.00;;;3.60;99.90;;;;;;5072700;28;20403;-78
2022/02/07 08:05:24;;;;;;;1.00;0.80;;;3.60;99.90;;;;;;5072538;28;20086;-77
2022/02/07 08:07:55;;;;;;;0.30;0.30;;;3.50;99.90;;;;;;5054406;28;20023;-78
2022/02/07 08:10:40;;;;;;;1.17;0.28;;;3.60;99.90;;;;;;5072315;28;20103;-78
2022/02/07 08:13:05;;;;;;;0.95;0.73;;;3.60;99.10;;;;;;5072176;28;20531;-77
2022/02/07 08:15:31;;;;;;;1.08;0.60;;;3.80;99.30;;;;;;5054031;28;20127;-77
2022/02/07 08:17:56;;;;;;;3.83;2.00;;;3.90;98.90;;;;;;5054027;28;20031;-78
2022/02/07 08:20:22;;;;;;;2.05;0.70;;;3.90;99.20;;;;;;5072189;28;20034;-77
2022/02/07 08:22:48;;;;;;;2.17;0.47;;;4.00;98.40;;;;;;5054186;28;20111;-78
2022/02/07 08:25:14;;;;;;;1.15;0.98;;;4.20;97.60;;;;;;5072052;28;20021;-78
2022/02/07 08:27:41;;;;;;;0.65;0.40;;;4.40;96.70;;;;;;5071746;28;20380;-78
2022/02/07 08:30:07;;;;;;;0.35;0.30;;;4.60;93.80;;;;;;5053921;28;20029;-79
2022/02/07 08:32:33;;;;;;;0.30;0.30;;;5.00;90.80;;;;;;5053976;28;20028;-78
2022/02/07 08:35:01;;;;;;;0.20;0.17;;;5.20;89.30;;;;;;5072001;28;20165;-78
2022/02/07 08:37:27;;;;;;;0.50;0.30;;;5.30;87.10;;;;;;5071806;28;20070;-79
2022/02/07 08:39:53;;;;;;;0.10;0.10;;;5.50;87.30;;;;;;5072063;28;20127;-78
2022/02/07 08:42:19;;;;;;;2.25;0.30;;;5.60;85.60;;;;;;5056153;28;20107;-79
2022/02/07 08:44:44;;;;;;;0.80;0.30;;;5.60;84.80;;;;;;5058104;28;20032;-80
2022/02/07 08:47:10;;;;;;;0.13;0.13;;;5.70;84.10;;;;;;5058020;28;20024;-79
2022/02/07 08:49:38;;;;;;;1.88;0.20;;;5.80;81.10;;;;;;5076107;28;20028;-79
2022/02/07 08:52:04;;;;;;;0.93;0.20;;;5.70;81.20;;;;;;5076077;28;20066;-78
2022/02/07 08:54:31;;;;;;;0.20;0.20;;;5.70;77.60;;;;;;5075691;28;20040;-79
2022/02/07 08:57:13;;;;;;;0.10;0.10;;;5.60;79.30;;;;;;5079332;28;20100;-76
2022/02/07 08:59:57;;;;;;;0.22;0.20;;;5.50;80.70;;;;;;5080202;28;20052;-74
2022/02/07 09:05:18;;;;;;;2.00;0.90;;;5.20;78.90;;;;;;5076993;28;20081;-77
2022/02/07 09:07:50;;;;;;;1.25;0.30;;;5.10;79.50;;;;;;5077540;28;20029;-75
2022/02/07 09:10:16;;;;;;;0.20;0.20;;;5.00;81.30;;;;;;5077100;28;20028;-76
2022/02/07 09:12:44;;;;;;;0.20;0.20;;;4.90;81.70;;;;;;5057861;28;20060;-76
2022/02/07 09:18:02;;;;;;;0.38;0.10;;;4.80;82.70;;;;;;5075661;28;20029;-75
2022/02/07 09:20:28;;;;;;;0.85;0.40;;;4.70;82.50;;;;;;5057595;28;20373;-78
2022/02/07 09:22:55;;;;;;;2.72;0.63;;;4.70;80.50;;;;;;5057319;28;20052;-78
2022/02/07 09:25:21;;;;;;;1.85;0.80;;;4.70;81.70;;;;;;5057365;28;20387;-76
2022/02/07 09:27:46;;;;;;;1.25;0.28;;;4.70;79.60;;;;;;5075297;28;20380;-77
2022/02/07 09:30:12;;;;;;;0.20;0.20;;;4.80;78.40;;;;;;5075381;28;20021;-76
2022/02/07 09:32:38;;;;;;;0.80;0.20;;;4.90;77.90;;;;;;5075019;28;20091;-79
2022/02/07 09:35:04;;;;;;;2.53;0.70;;;5.00;76.90;;;;;;5057134;28;20518;-79
2022/02/07 09:37:30;;;;;;;0.57;0.57;;;5.00;76.50;;;;;;5075105;28;20020;-80
2022/02/07 09:39:55;;;;;;;0.47;0.38;;;5.00;75.20;;;;;;5057165;28;20025;-79
2022/02/07 09:42:21;;;;;;;1.35;0.60;;;5.10;75.60;;;;;;5075086;28;20021;-78
2022/02/07 09:44:53;;;;;;;0.95;0.32;;;5.10;74.20;;;;;;5074950;28;20028;-77
2022/02/07 09:47:19;;;;;;;1.40;0.60;;;5.20;74.00;;;;;;5056899;28;20158;-79
2022/02/07 09:49:46;;;;;;;0.20;0.20;;;5.20;72.60;;;;;;5074887;28;20099;-77
2022/02/07 09:52:11;;;;;;;0.10;0.10;;;5.30;72.70;;;;;;5074296;28;20474;-78
2022/02/07 09:54:39;;;;;;;0.30;0.30;;;5.30;71.00;;;;;;5056848;28;20064;-80
2022/02/07 09:57:06;;;;;;;1.55;0.70;;;5.40;71.30;;;;;;5056474;28;20042;-78
2022/02/07 09:59:32;;;;;;;0.85;0.50;;;5.30;71.40;;;;;;5056602;28;20055;-79
2022/02/07 10:02:05;;;;;;;0.30;0.20;;;5.40;71.50;;;;;;5074586;28;20020;-78
2022/02/07 10:04:42;;;;;;;4.15;0.40;;;5.40;71.00;;;;;;5074764;28;20111;-78
2022/02/07 10:07:23;;;;;;;0.60;0.60;;;5.50;70.60;;;;;;5056470;28;20047;-78
2022/02/07 10:17:48;;;;;;;1.27;0.20;;;5.70;70.10;;;;;;5074712;28;20472;-78
2022/02/07 10:20:54;;;;;;;6.13;2.08;;;5.70;70.80;;;;;;5074320;28;20036;-78
2022/02/07 10:40:28;;;;;;;5.85;0.55;;;5.70;72.40;;;;;;5074316;28;20150;-80
2022/02/07 10:46:06;;;;;;;0.65;0.30;;;5.60;68.90;;;;;;5073809;28;20021;-79
2022/02/07 10:48:41;;;;;;;1.25;0.20;;;5.50;69.30;;;;;;5073755;28;20103;-78
2022/02/07 10:51:23;;;;;;;0.20;0.20;;;5.50;71.10;;;;;;5056010;28;20405;-78
2022/02/07 10:53:58;;;;;;;1.23;0.40;;;5.60;70.80;;;;;;5073661;28;20017;-81
2022/02/07 10:56:35;;;;;;;0.95;0.30;;;5.60;70.50;;;;;;5073795;28;20024;-77
2022/02/07 10:59:06;;;;;;;0.75;0.20;;;5.50;70.50;;;;;;5055291;28;20426;-79
2022/02/07 11:04:17;;;;;;;0.55;0.20;;;5.70;72.30;;;;;;5072739;28;20009;-81
2022/02/07 11:06:47;;;;;;;0.20;0.20;;;5.60;72.50;;;;;;5073572;28;20460;-78
2022/02/07 11:09:26;;;;;;;0.63;0.30;;;5.50;71.40;;;;;;5055477;28;20076;-78
2022/02/07 11:12:18;;;;;;;1.75;0.20;;;5.50;72.70;;;;;;5073526;28;20024;-78
2022/02/07 11:20:13;;;;;;;3.22;0.20;;;5.70;72.00;;;;;;5074068;28;20464;-80
2022/02/07 11:25:51;;;;;;;4.30;0.43;;;5.90;71.20;;;;;;5077161;28;20447;-80
2022/02/07 11:28:22;;;;;;;0.88;0.60;;;5.80;78.40;;;;;;5058679;28;20426;-81
2022/02/07 11:30:50;;;;;;;0.30;0.20;;;5.90;84.30;;;;;;5057597;28;20037;-79
2022/02/07 11:33:31;;;;;;;1.50;0.30;;;6.00;87.00;;;;;;5055610;28;20028;-79
2022/02/07 11:35:57;;;;;;;2.15;0.10;;;6.00;71.00;;;;;;5055189;28;20036;-79
2022/02/07 11:38:23;;;;;;;0.43;0.10;;;6.00;71.10;;;;;;5055287;28;20502;-78
2022/02/07 11:40:55;;;;;;;0.22;0.22;;;5.90;71.30;;;;;;5072544;28;20380;-79
2022/02/07 11:43:23;;;;;;;1.58;0.30;;;5.80;71.40;;;;;;5072520;28;20024;-79
2022/02/07 11:45:56;;;;;;;2.00;0.60;;;5.80;71.20;;;;;;5073080;28;20051;-81
2022/02/07 11:48:27;;;;;;;2.75;0.75;;;5.90;72.30;;;;;;5072733;28;20452;-79
2022/02/07 11:50:55;;;;;;;0.10;0.10;;;5.80;72.30;;;;;;5054982;28;20029;-78
2022/02/07 11:53:26;;;;;;;3.13;0.20;;;5.70;70.40;;;;;;5054843;28;20028;-79
2022/02/07 11:56:06;;;;;;;0.28;0.20;;;5.60;71.10;;;;;;5054939;28;20032;-78
2022/02/07 11:58:45;;;;;;;0.88;0.30;;;5.60;72.70;;;;;;5072854;28;20021;-79
2022/02/07 12:01:13;;;;;;;0.10;0.10;;;5.50;73.50;;;;;;5054717;28;20040;-78
2022/02/07 12:03:41;;;;;;;0.68;0.60;;;5.40;71.90;;;;;;5072294;28;20048;-77
2022/02/07 12:06:10;;;;;;;0.20;0.20;;;5.30;72.40;;;;;;5054878;28;20460;-78
2022/02/07 12:08:37;;;;;;;1.75;0.20;;;5.30;73.30;;;;;;5054454;28;20384;-78
2022/02/07 12:11:03;;;;;;;0.05;0.05;;;5.30;74.80;;;;;;5054391;28;20105;-79
2022/02/07 12:13:39;;;;;;;0.22;0.20;;;5.30;74.90;;;;;;5072568;28;20618;-77
2022/02/07 12:16:17;;;;;;;;;;;5.30;73.00;;;;;;5055012;28;20048;-79
2022/02/07 12:18:58;;;;;;;4.05;1.85;;;5.30;74.30;;;;;;5054554;28;19908;-77
2022/02/07 12:21:28;;;;;;;2.13;0.22;;;5.20;76.30;;;;;;5053957;28;20031;-79
2022/02/07 12:24:03;;;;;;;2.75;0.22;;;5.30;78.80;;;;;;5054393;28;20127;-80
2022/02/07 12:26:36;;;;;;;4.47;0.85;;;5.30;76.20;;;;;;5072411;28;20052;-79
2022/02/07 12:29:09;;;;;;;0.32;0.20;;;5.20;77.00;;;;;;5072378;28;20112;-79
2022/02/07 12:31:40;;;;;;;0.20;0.20;;;5.10;78.70;;;;;;5054327;28;20021;-77
2022/02/07 12:34:12;;;;;;;0.13;0.13;;;4.70;83.70;;;;;;5054226;28;20059;-79
2022/02/07 12:36:39;;;;;;;1.45;0.40;;;4.60;85.30;;;;;;5054216;28;20029;-79
2022/02/07 12:39:15;;;;;;;3.20;0.47;;;4.50;85.00;;;;;;5054310;28;20024;-79
2022/02/07 12:41:42;;;;;;;0.28;0.25;;;4.50;87.10;;;;;;5072076;28;20118;-77
2022/02/07 12:44:10;;;;;;;0.20;0.20;;;4.40;89.30;;;;;;5054231;28;20496;-79
2022/02/07 12:46:39;;;;;;;2.13;0.43;;;4.40;90.20;;;;;;5072365;28;20020;-80
2022/02/07 12:49:11;;;;;;;0.52;0.25;;;4.40;91.00;;;;;;5054163;28;20036;-79
2022/02/07 12:51:43;;;;;;;0.68;0.30;;;4.40;92.20;;;;;;5053979;28;20111;-79
2022/02/07 12:54:10;;;;;;;0.08;0.03;;;4.80;95.60;;;;;;5071761;28;20033;-80
2022/02/07 12:56:37;;;;;;;1.25;0.30;;;5.00;92.90;;;;;;5072364;28;20051;-79
2022/02/07 12:59:04;;;;;;;2.25;0.30;;;4.90;91.80;;;;;;5053732;28;20117;-81
2022/02/07 13:01:35;;;;;;;1.17;0.30;;;4.90;91.50;;;;;;5054283;28;20482;-78
2022/02/07 13:04:07;;;;;;;0.30;0.15;;;4.70;92.00;;;;;;5054004;28;20028;-79
2022/02/07 13:06:33;;;;;;;1.60;0.10;;;4.80;91.50;;;;;;5054226;28;20090;-80
2022/02/07 13:09:02;;;;;;;0.55;0.50;;;4.90;91.50;;;;;;5054001;28;20017;-80
2022/02/07 13:11:32;;;;;;;0.65;0.20;;;4.90;91.60;;;;;;5054029;28;20068;-79
2022/02/07 13:13:59;;;;;;;0.30;0.17;;;4.80;91.40;;;;;;5072023;28;20017;-78
2022/02/07 13:16:30;;;;;;;1.05;0.20;;;4.90;91.30;;;;;;5054332;28;20541;-79
2022/02/07 13:19:10;;;;;;;3.00;0.32;;;5.00;91.40;;;;;;5053864;28;20028;-80
2022/02/07 13:21:40;;;;;;;0.35;0.20;;;5.00;91.20;;;;;;5054005;28;20056;-79
2022/02/07 13:24:15;;;;;;;0.88;0.30;;;4.90;91.30;;;;;;5054048;28;20025;-79
2022/02/07 13:26:49;;;;;;;0.45;0.13;;;4.90;90.90;;;;;;5053789;28;20033;-79
2022/02/07 13:29:20;;;;;;;1.33;0.20;;;4.90;89.00;;;;;;5075366;28;20016;-78
2022/02/07 13:31:59;;;;;;;0.30;0.30;;;5.00;89.20;;;;;;5057765;28;20024;-78
2022/02/07 13:34:26;;;;;;;0.25;0.17;;;5.00;89.90;;;;;;5057498;28;20032;-79
2022/02/07 13:36:53;;;;;;;1.27;0.40;;;5.10;90.10;;;;;;5075270;28;20021;-79
2022/02/07 13:39:20;;;;;;;0.50;0.30;;;5.10;89.90;;;;;;5057623;28;20027;-80
2022/02/07 13:42:07;;;;;;;0.40;0.40;;;5.20;90.00;;;;;;5057519;28;20056;-78
2022/02/07 13:44:43;;;;;;;0.20;0.17;;;5.20;90.00;;;;;;5057267;28;20124;-79
2022/02/07 13:47:11;;;;;;;0.20;0.20;;;5.10;89.50;;;;;;5075404;28;20025;-78
2022/02/07 13:50:02;;;;;;;0.75;0.40;;;5.10;90.10;;;;;;5057188;28;20059;-78
2022/02/07 13:52:34;;;;;;;0.52;0.20;;;5.00;90.10;;;;;;5057307;28;20472;-80
2022/02/07 13:55:29;;;;;;;0.52;0.20;;;4.90;90.60;;;;;;5075375;28;20060;-79
2022/02/07 13:58:04;;;;;;;2.92;0.40;;;4.90;90.60;;;;;;5057090;28;20025;-78
2022/02/07 14:00:33;;;;;;;1.85;0.40;;;4.80;90.40;;;;;;5056793;28;20056;-79
2022/02/07 14:03:19;;;;;;;2.05;1.25;;;4.80;90.60;;;;;;5057300;28;20028;-79
2022/02/07 14:05:48;;;;;;;2.08;0.93;;;4.90;90.70;;;;;;5057263;28;20028;-81
2022/02/07 14:08:16;;;;;;;1.42;0.95;;;4.90;90.80;;;;;;5056966;28;20048;-79
2022/02/07 14:10:44;;;;;;;4.32;1.90;;;4.90;91.00;;;;;;5074938;28;20059;-79
2022/02/07 14:13:14;;;;;;;0.70;0.70;;;5.00;91.30;;;;;;5056642;28;20031;-80
2022/02/07 14:15:41;;;;;;;1.63;1.52;;;4.90;91.70;;;;;;5074437;28;20028;-79
2022/02/07 14:18:10;;;;;;;0.55;0.55;;;4.90;92.30;;;;;;5074518;28;20020;-80
2022/02/07 14:20:37;;;;;;;0.30;0.30;;;4.70;93.00;;;;;;5074557;28;20819;-78
2022/02/07 14:23:09;;;;;;;0.30;0.30;;;4.50;94.00;;;;;;5074721;28;20017;-79
2022/02/07 14:25:35;;;;;;;0.20;0.20;;;4.20;95.00;;;;;;5056704;28;20163;-78
2022/02/07 14:28:02;;;;;;;0.25;0.25;;;4.10;96.10;;;;;;5056351;28;20479;-78
2022/02/07 14:30:30;;;;;;;0.17;0.17;;;4.10;96.60;;;;;;5056691;28;20032;-79
2022/02/07 14:32:58;;;;;;;2.58;0.90;;;4.10;97.00;;;;;;5056347;28;20020;-79
2022/02/07 14:35:25;;;;;;;2.00;0.77;;;4.00;97.00;;;;;;5074233;28;20098;-79
2022/02/07 14:37:50;;;;;;;0.70;0.68;;;3.90;97.70;;;;;;5056275;28;20078;-78
2022/02/07 14:40:17;;;;;;;0.32;0.30;;;3.80;98.90;;;;;;5056366;28;20024;-77
2022/02/07 14:42:43;;;;;;;0.40;0.40;;;3.70;99.70;;;;;;5074122;28;20081;-79
2022/02/07 14:50:13;;;;;;;0.82;0.40;;;3.50;99.90;;;;;;5073995;28;20539;-80
2022/02/07 14:52:39;;;;;;;0.52;0.40;;;3.40;99.90;;;;;;5056094;28;20113;-78
2022/02/07 14:55:06;;;;;;;0.65;0.50;;;3.40;99.90;;;;;;5074033;28;20575;-79
2022/02/07 14:57:32;;;;;;;1.25;0.73;;;3.40;99.90;;;;;;5056047;28;20554;-80
2022/02/07 14:59:58;;;;;;;1.30;0.50;;;3.40;99.90;;;;;;5073785;28;20064;-77
2022/02/07 15:02:24;;;;;;;0.85;0.43;;;3.40;99.90;;;;;;5073863;28;20020;-79
2022/02/07 15:04:52;;;;;;;0.28;0.28;;;3.50;99.90;;;;;;5055890;28;20115;-78
2022/02/07 15:07:19;;;;;;;1.40;0.80;;;3.60;97.90;;;;;;5056521;28;20024;-79
2022/02/07 15:09:45;;;;;;;0.85;0.50;;;3.60;97.30;;;;;;5055975;28;20025;-79
2022/02/07 15:12:10;;;;;;;0.25;0.25;;;3.60;96.30;;;;;;5054331;28;20047;-78
2022/02/07 15:14:36;;;;;;;0.50;0.50;;;3.60;95.70;;;;;;5055473;28;20040;-77
2022/02/07 15:17:02;;;;;;;2.53;0.60;;;3.60;95.60;;;;;;5073377;28;20073;-79
2022/02/07 15:19:28;;;;;;;0.30;0.30;;;3.60;95.30;;;;;;5055658;28;20072;-78
2022/02/07 15:21:54;;;;;;;0.20;0.20;;;3.50;95.10;;;;;;5055592;28;20088;-77
2022/02/07 15:24:21;;;;;;;4.60;0.85;;;3.50;95.40;;;;;;5073100;28;20481;-80
2022/02/07 15:26:47;;;;;;;0.60;0.40;;;3.50;95.40;;;;;;5055629;28;20028;-79
2022/02/07 15:29:14;;;;;;;4.05;0.82;;;3.50;95.40;;;;;;5055213;28;20017;-79